sensor_id;sensor_type;location;lat;lon;timestamp;pressure;altitude;pressure_sealevel;temperature;humidity
59106;BME280;44891;50.204;8.132;2023-03-23T00:02:40;97351.13;;;12.94;56.81
59106;BME280;44891;50.204;8.132;2023-03-23T00:06:42;97360.09;;;12.98;56.60
59106;BME280;44891;50.204;8.132;2023-03-23T00:10:48;97357.41;;;13.03;56.08
59106;BME280;44891;50.204;8.132;2023-03-23T00:14:52;97349.75;;;13.06;56.21
59106;BME280;44891;50.204;8.132;2023-03-23T00:18:55;97351.56;;;13.11;56.05
59106;BME280;44891;50.204;8.132;2023-03-23T00:22:57;97357.63;;;13.12;56.10
59106;BME280;44891;50.204;8.132;2023-03-23T00:27:02;97356.59;;;13.07;56.83
59106;BME280;44891;50.204;8.132;2023-03-23T00:31:05;97350.03;;;13.05;57.27
59106;BME280;44891;50.204;8.132;2023-03-23T00:35:09;97339.00;;;12.98;58.11
59106;BME280;44891;50.204;8.132;2023-03-23T00:39:11;97330.31;;;12.97;57.64
59106;BME280;44891;50.204;8.132;2023-03-23T00:43:16;97318.69;;;12.98;57.94
59106;BME280;44891;50.204;8.132;2023-03-23T00:47:18;97322.69;;;12.96;58.07
59106;BME280;44891;50.204;8.132;2023-03-23T00:51:20;97322.41;;;12.97;58.20
59106;BME280;44891;50.204;8.132;2023-03-23T00:55:22;97314.50;;;12.97;58.01
59106;BME280;44891;50.204;8.132;2023-03-23T00:59:25;97336.41;;;12.93;58.54
59106;BME280;44891;50.204;8.132;2023-03-23T01:03:27;97348.47;;;12.99;58.30
59106;BME280;44891;50.204;8.132;2023-03-23T01:07:32;97352.19;;;12.98;58.88
59106;BME280;44891;50.204;8.132;2023-03-23T01:11:35;97353.56;;;12.90;59.68
59106;BME280;44891;50.204;8.132;2023-03-23T01:15:41;97355.91;;;12.92;59.45
59106;BME280;44891;50.204;8.132;2023-03-23T01:19:43;97343.81;;;12.86;60.27
59106;BME280;44891;50.204;8.132;2023-03-23T01:23:45;97330.16;;;12.78;60.97
59106;BME280;44891;50.204;8.132;2023-03-23T01:27:47;97317.81;;;12.74;61.16
59106;BME280;44891;50.204;8.132;2023-03-23T01:31:50;97323.06;;;12.79;60.06
59106;BME280;44891;50.204;8.132;2023-03-23T01:35:52;97303.22;;;12.87;59.57
59106;BME280;44891;50.204;8.132;2023-03-23T01:39:54;97298.22;;;12.90;59.48
59106;BME280;44891;50.204;8.132;2023-03-23T01:43:57;97297.19;;;12.86;59.86
59106;BME280;44891;50.204;8.132;2023-03-23T01:48:05;97289.03;;;12.88;59.64
59106;BME280;44891;50.204;8.132;2023-03-23T01:52:09;97305.84;;;12.92;58.70
59106;BME280;44891;50.204;8.132;2023-03-23T01:56:15;97287.19;;;12.88;58.92
59106;BME280;44891;50.204;8.132;2023-03-23T02:00:19;97295.31;;;12.92;58.93
59106;BME280;44891;50.204;8.132;2023-03-23T02:04:28;97283.97;;;12.91;58.61
59106;BME280;44891;50.204;8.132;2023-03-23T02:08:31;97273.44;;;12.91;58.35
59106;BME280;44891;50.204;8.132;2023-03-23T02:12:35;97278.16;;;12.94;58.75
59106;BME280;44891;50.204;8.132;2023-03-23T02:16:39;97278.69;;;12.91;58.25
59106;BME280;44891;50.204;8.132;2023-03-23T02:20:50;97277.34;;;12.94;58.49
59106;BME280;44891;50.204;8.132;2023-03-23T02:24:58;97269.50;;;12.89;58.65
59106;BME280;44891;50.204;8.132;2023-03-23T02:29:11;97264.47;;;12.92;59.43
59106;BME280;44891;50.204;8.132;2023-03-23T02:33:30;97257.72;;;12.81;60.24
59106;BME280;44891;50.204;8.132;2023-03-23T02:37:36;97255.94;;;12.71;62.22
59106;BME280;44891;50.204;8.132;2023-03-23T02:41:41;97260.06;;;12.48;65.48
59106;BME280;44891;50.204;8.132;2023-03-23T02:45:45;97256.69;;;12.38;67.08
59106;BME280;44891;50.204;8.132;2023-03-23T02:49:50;97253.78;;;12.34;66.85
59106;BME280;44891;50.204;8.132;2023-03-23T02:53:53;97236.50;;;12.23;66.62
59106;BME280;44891;50.204;8.132;2023-03-23T02:57:56;97249.94;;;12.21;68.28
59106;BME280;44891;50.204;8.132;2023-03-23T03:02:04;97246.47;;;12.31;68.34
59106;BME280;44891;50.204;8.132;2023-03-23T03:06:10;97235.47;;;12.19;70.51
59106;BME280;44891;50.204;8.132;2023-03-23T03:10:17;97230.50;;;12.12;69.21
59106;BME280;44891;50.204;8.132;2023-03-23T03:14:22;97234.53;;;12.00;72.22
59106;BME280;44891;50.204;8.132;2023-03-23T03:18:26;97230.31;;;11.98;72.19
59106;BME280;44891;50.204;8.132;2023-03-23T03:22:31;97229.81;;;11.91;72.11
59106;BME280;44891;50.204;8.132;2023-03-23T03:26:33;97240.84;;;11.93;71.12
59106;BME280;44891;50.204;8.132;2023-03-23T03:30:55;97240.53;;;12.10;69.44
59106;BME280;44891;50.204;8.132;2023-03-23T03:34:58;97235.75;;;12.17;69.57
59106;BME280;44891;50.204;8.132;2023-03-23T03:39:03;97236.81;;;12.16;68.93
59106;BME280;44891;50.204;8.132;2023-03-23T03:43:07;97243.13;;;12.15;71.18
59106;BME280;44891;50.204;8.132;2023-03-23T03:47:09;97258.66;;;12.17;69.52
59106;BME280;44891;50.204;8.132;2023-03-23T03:51:11;97252.84;;;12.20;68.82
59106;BME280;44891;50.204;8.132;2023-03-23T03:55:20;97244.69;;;12.21;69.98
59106;BME280;44891;50.204;8.132;2023-03-23T03:59:24;97255.47;;;12.20;70.41
59106;BME280;44891;50.204;8.132;2023-03-23T04:03:47;97269.97;;;12.17;71.44
59106;BME280;44891;50.204;8.132;2023-03-23T04:07:55;97271.78;;;12.22;70.64
59106;BME280;44891;50.204;8.132;2023-03-23T04:12:06;97288.09;;;12.24;71.23
59106;BME280;44891;50.204;8.132;2023-03-23T04:16:27;97283.91;;;12.23;71.32
59106;BME280;44891;50.204;8.132;2023-03-23T04:20:30;97296.28;;;12.22;72.04
59106;BME280;44891;50.204;8.132;2023-03-23T04:24:32;97291.22;;;12.26;72.62
59106;BME280;44891;50.204;8.132;2023-03-23T04:28:39;97279.16;;;12.20;73.48
59106;BME280;44891;50.204;8.132;2023-03-23T04:33:01;97271.78;;;12.22;73.86
59106;BME280;44891;50.204;8.132;2023-03-23T04:37:04;97267.06;;;12.19;74.84
59106;BME280;44891;50.204;8.132;2023-03-23T04:41:07;97274.66;;;12.20;74.13
59106;BME280;44891;50.204;8.132;2023-03-23T04:45:20;97274.19;;;12.13;75.45
59106;BME280;44891;50.204;8.132;2023-03-23T04:49:25;97263.94;;;12.07;75.94
59106;BME280;44891;50.204;8.132;2023-03-23T04:53:38;97262.16;;;12.02;76.41
59106;BME280;44891;50.204;8.132;2023-03-23T04:57:41;97262.88;;;12.08;76.00
59106;BME280;44891;50.204;8.132;2023-03-23T05:02:10;97265.53;;;12.08;75.87
59106;BME280;44891;50.204;8.132;2023-03-23T05:06:14;97278.72;;;12.03;75.72
59106;BME280;44891;50.204;8.132;2023-03-23T05:10:16;97280.28;;;12.04;76.13
59106;BME280;44891;50.204;8.132;2023-03-23T05:14:19;97269.78;;;12.04;76.31
59106;BME280;44891;50.204;8.132;2023-03-23T05:18:31;97267.13;;;12.04;76.56
59106;BME280;44891;50.204;8.132;2023-03-23T05:22:35;97275.56;;;12.01;76.50
59106;BME280;44891;50.204;8.132;2023-03-23T05:26:40;97279.50;;;12.03;77.08
59106;BME280;44891;50.204;8.132;2023-03-23T05:30:51;97274.75;;;12.05;77.31
59106;BME280;44891;50.204;8.132;2023-03-23T05:34:56;97285.28;;;12.00;78.04
59106;BME280;44891;50.204;8.132;2023-03-23T05:38:58;97288.75;;;11.95;77.78
59106;BME280;44891;50.204;8.132;2023-03-23T05:43:01;97273.97;;;12.05;78.00
59106;BME280;44891;50.204;8.132;2023-03-23T05:47:19;97274.50;;;12.02;78.33
59106;BME280;44891;50.204;8.132;2023-03-23T05:51:29;97256.91;;;11.92;79.54
59106;BME280;44891;50.204;8.132;2023-03-23T05:55:31;97267.72;;;11.90;79.50
59106;BME280;44891;50.204;8.132;2023-03-23T05:59:45;97280.09;;;11.90;80.64
59106;BME280;44891;50.204;8.132;2023-03-23T06:03:54;97241.50;;;11.55;81.84
59106;BME280;44891;50.204;8.132;2023-03-23T06:08:03;97288.75;;;11.80;81.64
59106;BME280;44891;50.204;8.132;2023-03-23T06:12:06;97294.03;;;11.85;80.80
59106;BME280;44891;50.204;8.132;2023-03-23T06:16:18;97290.34;;;11.86;81.80
59106;BME280;44891;50.204;8.132;2023-03-23T06:20:27;97301.38;;;11.88;81.27
59106;BME280;44891;50.204;8.132;2023-03-23T06:24:31;97304.53;;;11.95;81.38
59106;BME280;44891;50.204;8.132;2023-03-23T06:28:35;97319.50;;;12.05;80.11
59106;BME280;44891;50.204;8.132;2023-03-23T06:32:37;97328.72;;;11.97;79.76
59106;BME280;44891;50.204;8.132;2023-03-23T06:36:43;97333.44;;;12.01;80.04
59106;BME280;44891;50.204;8.132;2023-03-23T06:40:59;97338.97;;;12.04;79.90
59106;BME280;44891;50.204;8.132;2023-03-23T06:45:04;97332.63;;;12.10;80.40
59106;BME280;44891;50.204;8.132;2023-03-23T06:49:09;97328.72;;;11.97;78.90
59106;BME280;44891;50.204;8.132;2023-03-23T06:53:21;97330.84;;;11.95;79.34
59106;BME280;44891;50.204;8.132;2023-03-23T06:57:26;97338.97;;;12.04;79.25
59106;BME280;44891;50.204;8.132;2023-03-23T07:01:29;97346.09;;;12.04;78.37
59106;BME280;44891;50.204;8.132;2023-03-23T07:05:34;97351.34;;;12.04;77.29
59106;BME280;44891;50.204;8.132;2023-03-23T07:09:37;97345.31;;;11.98;75.53
59106;BME280;44891;50.204;8.132;2023-03-23T07:13:40;97347.38;;;12.06;74.88
59106;BME280;44891;50.204;8.132;2023-03-23T07:17:43;97341.38;;;11.95;74.57
59106;BME280;44891;50.204;8.132;2023-03-23T07:21:51;97348.94;;;12.12;76.60
59106;BME280;44891;50.204;8.132;2023-03-23T07:25:56;97355.97;;;12.27;74.92
59106;BME280;44891;50.204;8.132;2023-03-23T07:30:06;97351.84;;;12.16;74.20
59106;BME280;44891;50.204;8.132;2023-03-23T07:34:09;97354.75;;;12.04;75.17
59106;BME280;44891;50.204;8.132;2023-03-23T07:38:20;97343.44;;;12.09;75.34
59106;BME280;44891;50.204;8.132;2023-03-23T07:42:24;97354.97;;;12.18;75.34
59106;BME280;44891;50.204;8.132;2023-03-23T07:46:34;97362.84;;;12.23;74.82
59106;BME280;44891;50.204;8.132;2023-03-23T07:50:57;97363.63;;;12.29;75.20
59106;BME280;44891;50.204;8.132;2023-03-23T07:55:01;97365.94;;;12.40;75.21
59106;BME280;44891;50.204;8.132;2023-03-23T07:59:13;97362.81;;;12.33;76.31
59106;BME280;44891;50.204;8.132;2023-03-23T08:03:18;97365.69;;;12.42;76.56
59106;BME280;44891;50.204;8.132;2023-03-23T08:07:44;97367.47;;;12.51;76.85
59106;BME280;44891;50.204;8.132;2023-03-23T08:12:06;97379.53;;;12.68;77.53
59106;BME280;44891;50.204;8.132;2023-03-23T08:16:28;97385.78;;;12.77;77.17
59106;BME280;44891;50.204;8.132;2023-03-23T08:20:44;97396.16;;;12.58;78.51
59106;BME280;44891;50.204;8.132;2023-03-23T08:24:55;97408.00;;;12.56;78.15
59106;BME280;44891;50.204;8.132;2023-03-23T08:29:11;97397.44;;;12.61;78.91
59106;BME280;44891;50.204;8.132;2023-03-23T08:33:16;97404.31;;;12.62;78.47
59106;BME280;44891;50.204;8.132;2023-03-23T08:37:32;97407.44;;;12.69;78.60
59106;BME280;44891;50.204;8.132;2023-03-23T08:42:00;97408.41;;;12.83;78.41
59106;BME280;44891;50.204;8.132;2023-03-23T08:46:21;97411.72;;;12.99;76.87
59106;BME280;44891;50.204;8.132;2023-03-23T08:50:40;97401.41;;;13.07;76.15
59106;BME280;44891;50.204;8.132;2023-03-23T08:55:01;97407.69;;;13.22;75.00
59106;BME280;44891;50.204;8.132;2023-03-23T08:59:20;97404.25;;;13.16;74.70
59106;BME280;44891;50.204;8.132;2023-03-23T09:03:51;97400.53;;;13.27;71.57
59106;BME280;44891;50.204;8.132;2023-03-23T09:08:13;97406.78;;;13.37;71.75
59106;BME280;44891;50.204;8.132;2023-03-23T09:12:16;97406.56;;;13.62;69.20
59106;BME280;44891;50.204;8.132;2023-03-23T09:16:18;97407.38;;;13.57;67.67
59106;BME280;44891;50.204;8.132;2023-03-23T09:20:21;97400.41;;;13.43;67.23
59106;BME280;44891;50.204;8.132;2023-03-23T09:24:23;97423.41;;;13.32;68.05
59106;BME280;44891;50.204;8.132;2023-03-23T09:28:27;97417.66;;;13.20;70.43
59106;BME280;44891;50.204;8.132;2023-03-23T09:32:29;97416.09;;;13.19;71.55
59106;BME280;44891;50.204;8.132;2023-03-23T09:36:31;97426.44;;;13.10;71.72
59106;BME280;44891;50.204;8.132;2023-03-23T09:40:35;97421.91;;;13.16;72.82
59106;BME280;44891;50.204;8.132;2023-03-23T09:44:46;97416.69;;;13.50;72.22
59106;BME280;44891;50.204;8.132;2023-03-23T09:48:51;97424.94;;;13.38;70.06
59106;BME280;44891;50.204;8.132;2023-03-23T09:52:54;97421.16;;;13.54;71.82
59106;BME280;44891;50.204;8.132;2023-03-23T09:56:57;97421.25;;;13.39;69.63
59106;BME280;44891;50.204;8.132;2023-03-23T10:01:02;97433.56;;;13.10;67.24
59106;BME280;44891;50.204;8.132;2023-03-23T10:05:22;97452.03;;;13.04;68.51
59106;BME280;44891;50.204;8.132;2023-03-23T10:09:26;97445.22;;;12.93;68.34
59106;BME280;44891;50.204;8.132;2023-03-23T10:13:43;97443.72;;;12.82;69.19
59106;BME280;44891;50.204;8.132;2023-03-23T10:17:52;97438.19;;;12.84;68.46
59106;BME280;44891;50.204;8.132;2023-03-23T10:21:56;97442.75;;;13.12;69.07
59106;BME280;44891;50.204;8.132;2023-03-23T10:26:02;97440.88;;;13.23;67.91
59106;BME280;44891;50.204;8.132;2023-03-23T10:30:11;97441.38;;;13.30;68.11
59106;BME280;44891;50.204;8.132;2023-03-23T10:34:19;97439.00;;;13.28;67.98
59106;BME280;44891;50.204;8.132;2023-03-23T10:38:23;97420.47;;;13.39;67.97
59106;BME280;44891;50.204;8.132;2023-03-23T10:42:27;97415.41;;;13.47;67.16
59106;BME280;44891;50.204;8.132;2023-03-23T10:46:32;97427.00;;;13.80;65.92
59106;BME280;44891;50.204;8.132;2023-03-23T10:50:38;97430.56;;;14.19;63.40
59106;BME280;44891;50.204;8.132;2023-03-23T10:54:45;97394.78;;;14.07;62.90
59106;BME280;44891;50.204;8.132;2023-03-23T10:58:48;97432.06;;;14.54;62.19
59106;BME280;44891;50.204;8.132;2023-03-23T11:02:57;97430.16;;;14.78;60.50
59106;BME280;44891;50.204;8.132;2023-03-23T11:07:00;97448.03;;;15.05;59.96
59106;BME280;44891;50.204;8.132;2023-03-23T11:11:10;97452.38;;;14.77;60.47
59106;BME280;44891;50.204;8.132;2023-03-23T11:15:27;97463.19;;;14.33;61.92
59106;BME280;44891;50.204;8.132;2023-03-23T11:19:30;97460.13;;;13.92;63.33
59106;BME280;44891;50.204;8.132;2023-03-23T11:23:35;97448.31;;;13.84;64.22
59106;BME280;44891;50.204;8.132;2023-03-23T11:27:39;97454.16;;;13.81;63.39
59106;BME280;44891;50.204;8.132;2023-03-23T11:31:44;97460.16;;;13.57;63.81
59106;BME280;44891;50.204;8.132;2023-03-23T11:35:46;97459.53;;;13.71;64.46
59106;BME280;44891;50.204;8.132;2023-03-23T11:39:53;97461.44;;;13.60;64.69
59106;BME280;44891;50.204;8.132;2023-03-23T11:43:56;97456.69;;;13.62;65.06
59106;BME280;44891;50.204;8.132;2023-03-23T11:48:01;97468.72;;;13.73;64.55
59106;BME280;44891;50.204;8.132;2023-03-23T11:52:08;97453.09;;;13.82;65.49
59106;BME280;44891;50.204;8.132;2023-03-23T11:56:15;97456.22;;;13.89;64.36
59106;BME280;44891;50.204;8.132;2023-03-23T12:00:19;97446.03;;;14.06;63.39
59106;BME280;44891;50.204;8.132;2023-03-23T12:04:33;97438.00;;;14.17;63.44
59106;BME280;44891;50.204;8.132;2023-03-23T12:08:44;97433.94;;;14.24;63.54
59106;BME280;44891;50.204;8.132;2023-03-23T12:12:54;97417.88;;;14.45;64.24
59106;BME280;44891;50.204;8.132;2023-03-23T12:17:00;97403.34;;;14.47;65.28
59106;BME280;44891;50.204;8.132;2023-03-23T12:21:08;97372.13;;;14.25;66.95
59106;BME280;44891;50.204;8.132;2023-03-23T12:25:19;97401.03;;;14.40;67.67
59106;BME280;44891;50.204;8.132;2023-03-23T12:29:28;97391.44;;;14.68;67.24
59106;BME280;44891;50.204;8.132;2023-03-23T12:33:36;97388.72;;;15.30;63.40
59106;BME280;44891;50.204;8.132;2023-03-23T12:37:50;97386.31;;;14.96;65.15
59106;BME280;44891;50.204;8.132;2023-03-23T12:41:54;97389.47;;;14.79;65.27
59106;BME280;44891;50.204;8.132;2023-03-23T12:46:06;97389.19;;;14.81;64.33
59106;BME280;44891;50.204;8.132;2023-03-23T12:50:13;97409.09;;;15.30;63.63
59106;BME280;44891;50.204;8.132;2023-03-23T12:54:19;97381.81;;;15.67;60.41
59106;BME280;44891;50.204;8.132;2023-03-23T12:58:24;97394.97;;;15.72;61.51
59106;BME280;44891;50.204;8.132;2023-03-23T13:02:29;97392.91;;;15.50;61.38
59106;BME280;44891;50.204;8.132;2023-03-23T13:06:32;97386.72;;;15.22;63.46
59106;BME280;44891;50.204;8.132;2023-03-23T13:10:38;97377.47;;;15.06;67.25
59106;BME280;44891;50.204;8.132;2023-03-23T13:14:43;97383.72;;;14.72;68.76
59106;BME280;44891;50.204;8.132;2023-03-23T13:18:52;97388.22;;;14.53;70.21
59106;BME280;44891;50.204;8.132;2023-03-23T13:22:59;97396.88;;;14.34;71.46
59106;BME280;44891;50.204;8.132;2023-03-23T13:27:06;97400.63;;;14.28;72.25
59106;BME280;44891;50.204;8.132;2023-03-23T13:31:12;97395.75;;;14.17;73.62
59106;BME280;44891;50.204;8.132;2023-03-23T13:35:16;97391.63;;;14.05;74.44
59106;BME280;44891;50.204;8.132;2023-03-23T13:39:20;97396.81;;;13.86;73.65
59106;BME280;44891;50.204;8.132;2023-03-23T13:43:25;97400.31;;;13.82;74.22
59106;BME280;44891;50.204;8.132;2023-03-23T13:47:28;97400.34;;;13.77;74.85
59106;BME280;44891;50.204;8.132;2023-03-23T13:51:56;97399.63;;;13.71;75.51
59106;BME280;44891;50.204;8.132;2023-03-23T13:56:06;97403.56;;;13.74;74.63
59106;BME280;44891;50.204;8.132;2023-03-23T14:00:10;97403.56;;;13.74;74.61
59106;BME280;44891;50.204;8.132;2023-03-23T14:04:16;97400.84;;;13.79;74.90
59106;BME280;44891;50.204;8.132;2023-03-23T14:08:23;97394.06;;;13.73;72.75
59106;BME280;44891;50.204;8.132;2023-03-23T14:12:26;97396.66;;;13.78;73.87
59106;BME280;44891;50.204;8.132;2023-03-23T14:16:35;97397.25;;;13.99;71.49
59106;BME280;44891;50.204;8.132;2023-03-23T14:20:37;97394.84;;;14.02;70.20
59106;BME280;44891;50.204;8.132;2023-03-23T14:24:41;97394.22;;;14.10;69.36
59106;BME280;44891;50.204;8.132;2023-03-23T14:28:44;97379.44;;;14.09;68.10
59106;BME280;44891;50.204;8.132;2023-03-23T14:32:46;97393.66;;;14.13;67.53
59106;BME280;44891;50.204;8.132;2023-03-23T14:36:49;97402.13;;;14.10;67.06
59106;BME280;44891;50.204;8.132;2023-03-23T14:40:52;97401.69;;;14.03;67.09
59106;BME280;44891;50.204;8.132;2023-03-23T14:44:55;97408.09;;;13.97;66.35
59106;BME280;44891;50.204;8.132;2023-03-23T14:48:59;97406.84;;;13.90;66.78
59106;BME280;44891;50.204;8.132;2023-03-23T14:53:07;97384.63;;;14.20;66.55
59106;BME280;44891;50.204;8.132;2023-03-23T14:57:14;97385.72;;;14.61;65.52
59106;BME280;44891;50.204;8.132;2023-03-23T15:01:17;97379.03;;;14.45;66.02
59106;BME280;44891;50.204;8.132;2023-03-23T15:05:21;97392.44;;;15.29;63.08
59106;BME280;44891;50.204;8.132;2023-03-23T15:09:24;97388.13;;;15.98;60.70
59106;BME280;44891;50.204;8.132;2023-03-23T15:13:28;97393.03;;;15.59;60.88
59106;BME280;44891;50.204;8.132;2023-03-23T15:17:30;97406.97;;;14.75;62.66
59106;BME280;44891;50.204;8.132;2023-03-23T15:21:33;97385.31;;;15.62;60.09
59106;BME280;44891;50.204;8.132;2023-03-23T15:25:35;97395.94;;;15.90;59.99
59106;BME280;44891;50.204;8.132;2023-03-23T15:29:49;97396.16;;;15.80;59.10
59106;BME280;44891;50.204;8.132;2023-03-23T15:33:54;97404.81;;;14.96;60.80
59106;BME280;44891;50.204;8.132;2023-03-23T15:37:57;97402.31;;;14.67;60.98
59106;BME280;44891;50.204;8.132;2023-03-23T15:41:59;97395.00;;;14.59;62.14
59106;BME280;44891;50.204;8.132;2023-03-23T15:46:03;97397.16;;;14.33;62.92
59106;BME280;44891;50.204;8.132;2023-03-23T15:50:10;97392.31;;;14.16;63.50
59106;BME280;44891;50.204;8.132;2023-03-23T15:54:14;97390.50;;;14.11;63.65
59106;BME280;44891;50.204;8.132;2023-03-23T15:58:16;97393.94;;;14.12;64.13
59106;BME280;44891;50.204;8.132;2023-03-23T16:02:20;97392.66;;;14.09;64.06
59106;BME280;44891;50.204;8.132;2023-03-23T16:06:23;97393.09;;;14.17;65.22
59106;BME280;44891;50.204;8.132;2023-03-23T16:10:26;97382.88;;;14.10;66.75
59106;BME280;44891;50.204;8.132;2023-03-23T16:14:28;97397.81;;;13.96;67.60
59106;BME280;44891;50.204;8.132;2023-03-23T16:18:31;97389.09;;;13.95;67.93
59106;BME280;44891;50.204;8.132;2023-03-23T16:22:33;97387.91;;;13.82;67.53
59106;BME280;44891;50.204;8.132;2023-03-23T16:26:35;97396.25;;;13.95;67.21
59106;BME280;44891;50.204;8.132;2023-03-23T16:30:40;97388.28;;;14.00;67.03
59106;BME280;44891;50.204;8.132;2023-03-23T16:34:43;97386.47;;;13.95;67.31
59106;BME280;44891;50.204;8.132;2023-03-23T16:38:45;97373.59;;;13.88;68.47
59106;BME280;44891;50.204;8.132;2023-03-23T16:42:47;97372.25;;;13.91;68.85
59106;BME280;44891;50.204;8.132;2023-03-23T16:46:50;97374.06;;;13.67;69.54
59106;BME280;44891;50.204;8.132;2023-03-23T16:50:53;97355.66;;;13.62;70.49
59106;BME280;44891;50.204;8.132;2023-03-23T16:54:55;97365.19;;;13.57;70.92
59106;BME280;44891;50.204;8.132;2023-03-23T16:58:56;97362.03;;;13.55;71.48
59106;BME280;44891;50.204;8.132;2023-03-23T17:02:58;97367.41;;;13.45;71.20
59106;BME280;44891;50.204;8.132;2023-03-23T17:07:02;97364.53;;;13.42;71.84
59106;BME280;44891;50.204;8.132;2023-03-23T17:11:04;97369.06;;;13.36;72.73
59106;BME280;44891;50.204;8.132;2023-03-23T17:15:06;97365.22;;;13.23;74.45
59106;BME280;44891;50.204;8.132;2023-03-23T17:19:09;97359.72;;;13.15;76.61
59106;BME280;44891;50.204;8.132;2023-03-23T17:23:12;97366.63;;;13.05;78.77
59106;BME280;44891;50.204;8.132;2023-03-23T17:27:14;97367.50;;;12.91;80.02
59106;BME280;44891;50.204;8.132;2023-03-23T17:31:17;97378.88;;;12.86;79.96
59106;BME280;44891;50.204;8.132;2023-03-23T17:35:19;97384.97;;;12.82;80.81
59106;BME280;44891;50.204;8.132;2023-03-23T17:39:22;97389.47;;;12.76;81.50
59106;BME280;44891;50.204;8.132;2023-03-23T17:43:24;97388.72;;;12.70;81.68
59106;BME280;44891;50.204;8.132;2023-03-23T17:47:25;97385.88;;;12.62;82.55
59106;BME280;44891;50.204;8.132;2023-03-23T17:51:27;97384.06;;;12.52;83.29
59106;BME280;44891;50.204;8.132;2023-03-23T17:55:30;97393.03;;;12.46;83.58
59106;BME280;44891;50.204;8.132;2023-03-23T17:59:32;97395.16;;;12.44;84.08
59106;BME280;44891;50.204;8.132;2023-03-23T18:03:34;97403.28;;;12.47;84.14
59106;BME280;44891;50.204;8.132;2023-03-23T18:07:36;97397.78;;;12.44;84.35
59106;BME280;44891;50.204;8.132;2023-03-23T18:11:40;97392.25;;;12.45;84.66
59106;BME280;44891;50.204;8.132;2023-03-23T18:15:42;97383.06;;;12.43;85.41
59106;BME280;44891;50.204;8.132;2023-03-23T18:19:44;97377.81;;;12.38;85.66
59106;BME280;44891;50.204;8.132;2023-03-23T18:23:47;97367.53;;;12.41;85.54
59106;BME280;44891;50.204;8.132;2023-03-23T18:27:50;97373.81;;;12.40;85.62
59106;BME280;44891;50.204;8.132;2023-03-23T18:31:52;97363.91;;;12.22;86.69
59106;BME280;44891;50.204;8.132;2023-03-23T18:35:55;97370.75;;;12.23;86.47
59106;BME280;44891;50.204;8.132;2023-03-23T18:39:57;97371.28;;;12.20;87.34
59106;BME280;44891;50.204;8.132;2023-03-23T18:44:00;97364.94;;;12.26;86.69
59106;BME280;44891;50.204;8.132;2023-03-23T18:48:02;97372.84;;;12.21;87.06
59106;BME280;44891;50.204;8.132;2023-03-23T18:52:04;97377.88;;;12.22;86.78
59106;BME280;44891;50.204;8.132;2023-03-23T18:56:07;97381.28;;;12.23;86.40
59106;BME280;44891;50.204;8.132;2023-03-23T19:00:11;97379.94;;;12.25;86.23
59106;BME280;44891;50.204;8.132;2023-03-23T19:04:13;97379.44;;;12.18;87.19
59106;BME280;44891;50.204;8.132;2023-03-23T19:08:15;97381.31;;;12.13;87.54
59106;BME280;44891;50.204;8.132;2023-03-23T19:12:17;97378.72;;;12.03;88.23
59106;BME280;44891;50.204;8.132;2023-03-23T19:16:22;97366.84;;;12.05;88.27
59106;BME280;44891;50.204;8.132;2023-03-23T19:20:24;97373.41;;;12.13;87.99
59106;BME280;44891;50.204;8.132;2023-03-23T19:24:26;97361.31;;;12.07;87.44
59106;BME280;44891;50.204;8.132;2023-03-23T19:28:29;97364.50;;;12.04;87.83
59106;BME280;44891;50.204;8.132;2023-03-23T19:32:32;97355.81;;;12.03;87.41
59106;BME280;44891;50.204;8.132;2023-03-23T19:36:35;97351.34;;;11.98;87.76
59106;BME280;44891;50.204;8.132;2023-03-23T19:40:37;97346.38;;;11.92;87.96
59106;BME280;44891;50.204;8.132;2023-03-23T19:44:39;97346.88;;;11.99;87.11
59106;BME280;44891;50.204;8.132;2023-03-23T19:48:43;97342.44;;;11.89;87.61
59106;BME280;44891;50.204;8.132;2023-03-23T19:52:46;97332.94;;;11.93;87.11
59106;BME280;44891;50.204;8.132;2023-03-23T19:56:48;97317.72;;;11.85;87.63
59106;BME280;44891;50.204;8.132;2023-03-23T20:00:50;97322.19;;;11.90;89.62
59106;BME280;44891;50.204;8.132;2023-03-23T20:04:53;97319.56;;;11.85;90.59
59106;BME280;44891;50.204;8.132;2023-03-23T20:08:56;97310.31;;;11.92;89.99
59106;BME280;44891;50.204;8.132;2023-03-23T20:12:57;97298.22;;;11.96;89.88
59106;BME280;44891;50.204;8.132;2023-03-23T20:16:59;97297.16;;;11.97;89.89
59106;BME280;44891;50.204;8.132;2023-03-23T20:21:04;97300.28;;;12.05;89.71
59106;BME280;44891;50.204;8.132;2023-03-23T20:25:06;97292.66;;;12.03;90.09
59106;BME280;44891;50.204;8.132;2023-03-23T20:29:08;97293.97;;;12.06;90.44
59106;BME280;44891;50.204;8.132;2023-03-23T20:33:10;97297.09;;;12.08;90.58
59106;BME280;44891;50.204;8.132;2023-03-23T20:37:13;97296.06;;;12.09;91.19
59106;BME280;44891;50.204;8.132;2023-03-23T20:41:17;97285.28;;;12.10;91.87
59106;BME280;44891;50.204;8.132;2023-03-23T20:45:20;97280.00;;;12.10;92.40
59106;BME280;44891;50.204;8.132;2023-03-23T20:49:22;97270.50;;;12.14;92.39
59106;BME280;44891;50.204;8.132;2023-03-23T20:53:26;97280.72;;;12.21;92.35
59106;BME280;44891;50.204;8.132;2023-03-23T20:57:28;97279.16;;;12.20;92.63
59106;BME280;44891;50.204;8.132;2023-03-23T21:01:30;97284.94;;;12.22;92.70
59106;BME280;44891;50.204;8.132;2023-03-23T21:05:32;97273.38;;;12.23;92.91
59106;BME280;44891;50.204;8.132;2023-03-23T21:09:35;97261.78;;;12.19;93.55
59106;BME280;44891;50.204;8.132;2023-03-23T21:13:37;97264.41;;;12.24;93.11
59106;BME280;44891;50.204;8.132;2023-03-23T21:17:39;97274.94;;;12.24;92.90
59106;BME280;44891;50.204;8.132;2023-03-23T21:21:41;97268.09;;;12.23;93.42
59106;BME280;44891;50.204;8.132;2023-03-23T21:25:45;97268.06;;;12.28;93.61
59106;BME280;44891;50.204;8.132;2023-03-23T21:29:47;97268.31;;;12.27;94.33
59106;BME280;44891;50.204;8.132;2023-03-23T21:33:49;97265.69;;;12.27;94.49
59106;BME280;44891;50.204;8.132;2023-03-23T21:37:50;97259.13;;;12.24;94.66
59106;BME280;44891;50.204;8.132;2023-03-23T21:41:54;97256.25;;;12.20;95.18